»·PEaware :: ASA1024 KSFO-KJFK

ASA1024 :: KSFO-KJFK

FLIGHT INFORMATION

Flight Status: Arrived
Operator:
Alaska Airlines
More flights by this operator :: More flights under this callsign
Pilot: Henderson P. (1210)
Aircraft: AIRBUS A320
(A320)
More flights by this aircraft type
Origin: KSFO San Francisco Intl
United States
Destination: KJFK Kennedy Intl
United States
More flights between these airports :: More routes between these airports
Route: TRUKN2 TIPRE Q126 INSLO Q126 GAROT BFF ONL FOD KG75M DAFLU J70 LVZ LENDY6
File this flight plan on PilotEdge
Remarks:
Altitude:
(Current/Filed)
35,000ft
Speed:
(Current/Filed)
438kts
Departed: 03-Oct-18 02:12 PM
Arrived: 03-Oct-18 07:08 PM
Distance/Time
Traveled:
2240nm/4:56
Distance/Time
To Go:
Arrived

Flight Plot

Page will automatically refresh every two minutes.

Flight plan parsing failed; only flown route is shown


Map Options




Map Legend


Flown Route
Filed Route
Departure Airport
Arrival Airport
Navaid (VOR, NDB)
Fix

Horizontal Profiles

Position Reports

Time Latitude Longitude Heading Altitude Ground
Speed
03-Oct-18 13:42 37.616747 -122.380526 301 27ft 0kts
03-Oct-18 13:43 37.616747 -122.380526 301 27ft 0kts
03-Oct-18 13:44 37.616747 -122.380526 301 27ft 0kts
03-Oct-18 13:45 37.616747 -122.380526 301 27ft 0kts
03-Oct-18 13:46 37.616747 -122.380526 301 27ft 0kts
03-Oct-18 13:47 37.616747 -122.380526 301 27ft 0kts
03-Oct-18 13:48 37.616747 -122.380526 301 27ft 0kts
03-Oct-18 13:49 37.616747 -122.380526 301 27ft 0kts
03-Oct-18 13:50 37.616747 -122.380526 301 27ft 0kts
03-Oct-18 13:51 37.616747 -122.380526 301 27ft 0kts
03-Oct-18 13:52 37.616747 -122.380526 301 27ft 0kts
03-Oct-18 13:53 37.616747 -122.380526 301 27ft 0kts
03-Oct-18 13:54 37.616747 -122.380526 301 27ft 0kts
03-Oct-18 13:55 37.616747 -122.380526 301 27ft 0kts
03-Oct-18 13:56 37.616747 -122.380526 301 27ft 0kts
03-Oct-18 13:57 37.616747 -122.380526 301 27ft 0kts
03-Oct-18 13:58 37.616747 -122.380526 301 27ft 0kts
03-Oct-18 13:59 37.616747 -122.380526 301 27ft 0kts
03-Oct-18 14:00 37.616747 -122.380526 301 27ft 0kts
03-Oct-18 14:01 37.616747 -122.380526 301 27ft 0kts
03-Oct-18 14:02 37.616747 -122.380526 301 27ft 0kts
03-Oct-18 14:03 37.616747 -122.380526 301 27ft 0kts
03-Oct-18 14:04 37.616747 -122.380526 301 27ft 0kts
03-Oct-18 14:05 37.616557 -122.380057 284 27ft 2kts
03-Oct-18 14:06 37.616823 -122.379515 207 27ft 2kts
03-Oct-18 14:07 37.616849 -122.379498 207 27ft 0kts
03-Oct-18 14:08 37.616849 -122.379498 207 27ft 0kts
03-Oct-18 14:09 37.616751 -122.379562 207 27ft 2kts
03-Oct-18 14:10 37.615530 -122.380364 207 27ft 7kts
03-Oct-18 14:11 37.612928 -122.382108 207 27ft 13kts
03-Oct-18 14:12 37.609169 -122.384841 210 27ft 13kts
03-Oct-18 14:13 37.608306 -122.383374 116 27ft 4kts
03-Oct-18 14:14 37.608985 -122.382182 27 27ft 42kts
03-Oct-18 14:15 37.646807 -122.355829 44 1453ft 187kts
03-Oct-18 14:16 37.673241 -122.301744 58 3543ft 203kts
03-Oct-18 14:17 37.708439 -122.231979 56 5117ft 267kts
03-Oct-18 14:18 37.751269 -122.149380 58 7971ft 286kts
03-Oct-18 14:19 37.795990 -122.063195 59 10569ft 304kts
03-Oct-18 14:20 37.843029 -121.963116 66 12240ft 346kts
03-Oct-18 14:21 37.886363 -121.852882 65 14639ft 356kts
03-Oct-18 14:22 37.931464 -121.738917 65 16752ft 367kts
03-Oct-18 14:23 37.969988 -121.641094 65 18371ft 376kts
03-Oct-18 14:24 38.025186 -121.500456 64 20337ft 389kts
03-Oct-18 14:25 38.065856 -121.396494 64 21642ft 398kts
03-Oct-18 14:26 38.123825 -121.247636 64 23329ft 409kts
03-Oct-18 14:27 38.166259 -121.138203 64 24452ft 416kts
03-Oct-18 14:28 38.214819 -120.978357 80 25961ft 420kts
03-Oct-18 14:29 38.231260 -120.855232 80 26915ft 426kts
03-Oct-18 14:30 38.252750 -120.705336 80 28001ft 433kts
03-Oct-18 14:31 38.273851 -120.553873 81 28995ft 439kts
03-Oct-18 14:32 38.295210 -120.399637 81 30029ft 445kts
03-Oct-18 14:33 38.316407 -120.244991 81 31441ft 441kts
03-Oct-18 14:34 38.337265 -120.090998 81 32402ft 441kts
03-Oct-18 14:35 38.357971 -119.936706 82 33213ft 443kts
03-Oct-18 14:36 38.378471 -119.782198 82 34003ft 443kts
03-Oct-18 14:37 38.398941 -119.626864 83 34635ft 444kts
03-Oct-18 14:38 38.419090 -119.471351 83 35015ft 442kts
03-Oct-18 14:39 38.439058 -119.316242 84 35013ft 444kts
03-Oct-18 14:40 38.458905 -119.160208 84 35020ft 447kts
03-Oct-18 14:41 38.478714 -119.002905 85 35029ft 451kts
03-Oct-18 14:42 38.498468 -118.844091 86 35014ft 455kts
03-Oct-18 14:43 38.518050 -118.684383 87 35005ft 456kts
03-Oct-18 14:44 38.537690 -118.523889 87 34948ft 458kts
03-Oct-18 14:45 38.557050 -118.362056 88 34925ft 461kts
03-Oct-18 14:46 38.576281 -118.200322 88 34998ft 462kts
03-Oct-18 14:47 38.595453 -118.036797 89 35026ft 465kts
03-Oct-18 14:48 38.614333 -117.873081 89 35013ft 466kts
03-Oct-18 14:49 38.633233 -117.708527 89 34974ft 468kts
03-Oct-18 14:50 38.651840 -117.543795 89 35037ft 468kts
03-Oct-18 14:51 38.670202 -117.378702 89 35069ft 470kts
03-Oct-18 14:52 38.693424 -117.212799 84 35078ft 476kts
03-Oct-18 14:53 38.722040 -117.047426 85 35094ft 475kts
03-Oct-18 14:54 38.749903 -116.881849 85 35055ft 476kts
03-Oct-18 14:55 38.777743 -116.715826 85 35009ft 477kts
03-Oct-18 14:56 38.805427 -116.548698 85 35051ft 480kts
03-Oct-18 14:57 38.833113 -116.380208 85 35101ft 483kts
03-Oct-18 14:58 38.860584 -116.211825 86 35102ft 483kts
03-Oct-18 14:59 38.887781 -116.042762 86 35103ft 482kts
03-Oct-18 15:00 38.914654 -115.874193 85 35105ft 481kts
03-Oct-18 15:01 38.941400 -115.705357 87 35040ft 486kts
03-Oct-18 15:02 38.968166 -115.534355 86 35082ft 487kts
03-Oct-18 15:03 38.994628 -115.363316 86 35146ft 487kts
03-Oct-18 15:04 39.020892 -115.192487 86 35123ft 487kts
03-Oct-18 15:05 39.046780 -115.021662 86 35147ft 486kts
03-Oct-18 15:06 39.072462 -114.850735 86 35084ft 489kts
03-Oct-18 15:07 39.098072 -114.678154 86 35176ft 491kts
03-Oct-18 15:08 39.123595 -114.505076 86 35168ft 493kts
03-Oct-18 15:09 39.148771 -114.331879 86 35159ft 491kts
03-Oct-18 15:10 39.173634 -114.158897 86 35133ft 490kts
03-Oct-18 15:11 39.198237 -113.986006 86 35054ft 491kts
03-Oct-18 15:12 39.222804 -113.811578 86 35054ft 497kts
03-Oct-18 15:13 39.247292 -113.635870 86 35127ft 502kts
03-Oct-18 15:14 39.271665 -113.458565 86 35121ft 499kts
03-Oct-18 15:15 39.295531 -113.282867 87 35023ft 500kts
03-Oct-18 15:16 39.323092 -113.099285 75 33190ft 475kts
03-Oct-18 15:17 39.380070 -112.956151 62 35094ft 441kts
03-Oct-18 15:18 39.442880 -112.817770 72 35011ft 448kts
03-Oct-18 15:19 39.489656 -112.666270 75 35057ft 457kts
03-Oct-18 15:20 39.531853 -112.509051 71 35089ft 472kts
03-Oct-18 15:21 39.583303 -112.349638 73 35086ft 486kts
03-Oct-18 15:22 39.633748 -112.183578 72 35085ft 503kts
03-Oct-18 15:23 39.686295 -112.012604 72 35090ft 513kts
03-Oct-18 15:24 39.738637 -111.840335 72 35087ft 513kts
03-Oct-18 15:25 39.790982 -111.667196 72 35129ft 513kts
03-Oct-18 15:26 39.842965 -111.494183 72 35134ft 513kts
03-Oct-18 15:27 39.894463 -111.321590 72 35132ft 512kts
03-Oct-18 15:28 39.945835 -111.148142 72 35106ft 513kts
03-Oct-18 15:29 39.996923 -110.974632 73 35067ft 513kts
03-Oct-18 15:30 40.048024 -110.800113 72 35064ft 514kts
03-Oct-18 15:31 40.098692 -110.625944 72 35056ft 514kts
03-Oct-18 15:32 40.149182 -110.450892 72 35052ft 515kts
03-Oct-18 15:33 40.199465 -110.275459 72 35079ft 515kts
03-Oct-18 15:34 40.249663 -110.099354 73 35100ft 515kts
03-Oct-18 15:35 40.299423 -109.923518 72 35107ft 516kts
03-Oct-18 15:36 40.348880 -109.747285 73 35089ft 516kts
03-Oct-18 15:37 40.398412 -109.569892 73 35100ft 517kts
03-Oct-18 15:38 40.447589 -109.392466 72 35113ft 517kts
03-Oct-18 15:39 40.496343 -109.215158 72 35130ft 517kts
03-Oct-18 15:40 40.544983 -109.036990 72 35100ft 519kts
03-Oct-18 15:41 40.593583 -108.858151 72 35122ft 519kts
03-Oct-18 15:42 40.641898 -108.678702 72 35160ft 519kts
03-Oct-18 15:43 40.689752 -108.499634 73 35175ft 520kts
03-Oct-18 15:44 40.737557 -108.319570 73 35182ft 521kts
03-Oct-18 15:45 40.785282 -108.138503 73 35180ft 522kts
03-Oct-18 15:46 40.832525 -107.957920 72 35185ft 521kts
03-Oct-18 15:47 40.879543 -107.776950 73 35199ft 520kts
03-Oct-18 15:48 40.926066 -107.596037 73 35206ft 519kts
03-Oct-18 15:49 40.972482 -107.415134 73 35161ft 519kts
03-Oct-18 15:50 41.018438 -107.233974 73 35142ft 519kts
03-Oct-18 15:51 41.064006 -107.053011 73 35150ft 518kts
03-Oct-18 15:52 41.109301 -106.871919 73 35146ft 517kts
03-Oct-18 15:53 41.154326 -106.690634 73 35157ft 517kts
03-Oct-18 15:54 41.199054 -106.508813 74 35154ft 519kts
03-Oct-18 15:55 41.243729 -106.326330 74 35216ft 519kts
03-Oct-18 15:56 41.288047 -106.143553 74 35237ft 520kts
03-Oct-18 15:57 41.331963 -105.960230 74 35220ft 521kts
03-Oct-18 15:58 41.376049 -105.776247 74 35216ft 521kts
03-Oct-18 15:59 41.419503 -105.592494 74 35213ft 521kts
03-Oct-18 16:00 41.462752 -105.407931 74 35207ft 521kts
03-Oct-18 16:01 41.505720 -105.223614 74 35201ft 521kts
03-Oct-18 16:02 41.548410 -105.038763 75 35196ft 520kts
03-Oct-18 16:03 41.590786 -104.854233 75 35189ft 520kts
03-Oct-18 16:04 41.632823 -104.668828 75 35150ft 521kts
03-Oct-18 16:05 41.674700 -104.483053 75 35087ft 523kts
03-Oct-18 16:06 41.716284 -104.296711 75 35123ft 523kts
03-Oct-18 16:07 41.757830 -104.109539 76 35117ft 527kts
03-Oct-18 16:08 41.799114 -103.920964 75 35134ft 527kts
03-Oct-18 16:09 41.840186 -103.732472 76 35118ft 526kts
03-Oct-18 16:10 41.880700 -103.544395 75 35111ft 524kts
03-Oct-18 16:11 41.912433 -103.354909 82 35087ft 520kts
03-Oct-18 16:12 41.938835 -103.164157 81 35076ft 520kts
03-Oct-18 16:13 41.965405 -102.972324 81 35135ft 523kts
03-Oct-18 16:14 41.991759 -102.779709 81 35164ft 524kts
03-Oct-18 16:15 42.017696 -102.587212 81 35149ft 522kts
03-Oct-18 16:16 42.043253 -102.395080 81 35085ft 522kts
03-Oct-18 16:17 42.068520 -102.202856 81 35108ft 521kts
03-Oct-18 16:18 42.093427 -102.010473 81 35104ft 521kts
03-Oct-18 16:19 42.118003 -101.818063 81 35100ft 521kts
03-Oct-18 16:20 42.142348 -101.625202 82 35086ft 522kts
03-Oct-18 16:21 42.166263 -101.432169 82 35099ft 521kts
03-Oct-18 16:22 42.189924 -101.238621 82 35084ft 523kts
03-Oct-18 16:23 42.213275 -101.045156 82 35141ft 523kts
03-Oct-18 16:24 42.236392 -100.850865 82 35140ft 525kts
03-Oct-18 16:25 42.259123 -100.656613 82 35139ft 524kts
03-Oct-18 16:26 42.281457 -100.462730 82 35128ft 522kts
03-Oct-18 16:27 42.303592 -100.268760 82 35121ft 521kts
03-Oct-18 16:28 42.325179 -100.075081 82 35088ft 520kts
03-Oct-18 16:29 42.346426 -99.882226 82 35023ft 520kts
03-Oct-18 16:30 42.367401 -99.688500 82 35015ft 519kts
03-Oct-18 16:31 42.388043 -99.495241 83 35024ft 520kts
03-Oct-18 16:32 42.404967 -99.333462 83 35088ft 520kts
03-Oct-18 16:33 42.428330 -99.107062 83 35080ft 521kts
03-Oct-18 16:34 42.444779 -98.944714 83 35073ft 521kts
03-Oct-18 16:35 42.464134 -98.750874 83 35073ft 519kts
03-Oct-18 16:36 42.477189 -98.556763 88 35074ft 516kts
03-Oct-18 16:37 42.486531 -98.362916 88 35062ft 515kts
03-Oct-18 16:38 42.495708 -98.169368 88 35059ft 513kts
03-Oct-18 16:39 42.504622 -97.976363 88 34979ft 513kts
03-Oct-18 16:40 42.513133 -97.783279 88 34925ft 513kts
03-Oct-18 16:41 42.521382 -97.590640 88 34913ft 512kts
03-Oct-18 16:42 42.529162 -97.397554 88 34899ft 512kts
03-Oct-18 16:43 42.536734 -97.204988 88 34887ft 512kts
03-Oct-18 16:44 42.543901 -97.012524 88 34883ft 511kts
03-Oct-18 16:45 42.550870 -96.819951 88 34865ft 511kts
03-Oct-18 16:46 42.557359 -96.627458 88 34907ft 510kts
03-Oct-18 16:47 42.563554 -96.435311 88 34913ft 510kts
03-Oct-18 16:48 42.569489 -96.243111 89 34917ft 510kts
03-Oct-18 16:49 42.575040 -96.051231 89 34926ft 509kts
03-Oct-18 16:50 42.580227 -95.859436 89 34909ft 508kts
03-Oct-18 16:51 42.585171 -95.668169 89 34892ft 506kts
03-Oct-18 16:52 42.589843 -95.476990 89 34827ft 506kts
03-Oct-18 16:53 42.594076 -95.286044 89 34783ft 506kts
03-Oct-18 16:54 42.597965 -95.095319 89 34785ft 505kts
03-Oct-18 16:55 42.601475 -94.904999 89 34828ft 505kts
03-Oct-18 16:56 42.605012 -94.713414 89 34812ft 507kts
03-Oct-18 16:57 42.607942 -94.522301 89 34731ft 506kts
03-Oct-18 16:58 42.610576 -94.332531 90 34723ft 502kts
03-Oct-18 16:59 42.612490 -94.143437 90 34662ft 499kts
03-Oct-18 17:00 42.613872 -93.954032 90 34640ft 501kts
03-Oct-18 17:01 42.615020 -93.765173 90 34724ft 501kts
03-Oct-18 17:02 42.615873 -93.575762 90 34723ft 501kts
03-Oct-18 17:03 42.616303 -93.386888 90 34725ft 500kts
03-Oct-18 17:04 42.616587 -93.197705 90 34687ft 500kts
03-Oct-18 17:05 42.616372 -93.009533 90 34687ft 499kts
03-Oct-18 17:06 42.615867 -92.820716 90 34652ft 499kts
03-Oct-18 17:07 42.615267 -92.632229 91 34674ft 498kts
03-Oct-18 17:08 42.614157 -92.444723 91 34689ft 497kts
03-Oct-18 17:09 42.612997 -92.256967 91 34685ft 496kts
03-Oct-18 17:10 42.611257 -92.069416 91 34658ft 497kts
03-Oct-18 17:11 42.609355 -91.882596 91 34733ft 494kts
03-Oct-18 17:12 42.607016 -91.695951 91 34704ft 494kts
03-Oct-18 17:13 42.604592 -91.509345 91 34639ft 495kts
03-Oct-18 17:14 42.601667 -91.322070 91 34637ft 495kts
03-Oct-18 17:15 42.598558 -91.135052 91 34641ft 496kts
03-Oct-18 17:16 42.595017 -90.948442 92 34657ft 497kts
03-Oct-18 17:17 42.591259 -90.758805 92 34660ft 504kts
03-Oct-18 17:18 42.587082 -90.568094 92 34662ft 511kts
03-Oct-18 17:19 42.582555 -90.378171 92 34699ft 500kts
03-Oct-18 17:20 42.577829 -90.188893 92 34709ft 500kts
03-Oct-18 17:21 42.572826 -90.000971 92 34721ft 500kts
03-Oct-18 17:22 42.567362 -89.811967 92 34728ft 500kts
03-Oct-18 17:23 42.561818 -89.624373 92 34728ft 500kts
03-Oct-18 17:24 42.555690 -89.435162 92 34705ft 500kts
03-Oct-18 17:25 42.549427 -89.246526 93 34719ft 500kts
03-Oct-18 17:26 42.542936 -89.058778 93 34753ft 500kts
03-Oct-18 17:27 42.535969 -88.869816 93 34743ft 500kts
03-Oct-18 17:28 42.528718 -88.681514 93 34763ft 500kts
03-Oct-18 17:29 42.521244 -88.493664 93 34765ft 499kts
03-Oct-18 17:30 42.513448 -88.306319 93 34758ft 498kts
03-Oct-18 17:31 42.505369 -88.119086 93 34771ft 495kts
03-Oct-18 17:32 42.499596 -87.933202 89 34769ft 493kts
03-Oct-18 17:33 42.499994 -87.747940 89 34704ft 493kts
03-Oct-18 17:34 42.499199 -87.561784 89 34692ft 493kts
03-Oct-18 17:35 42.498530 -87.375714 89 34692ft 495kts
03-Oct-18 17:36 42.497275 -87.188444 89 34750ft 496kts
03-Oct-18 17:37 42.495879 -87.001853 89 34808ft 497kts
03-Oct-18 17:38 42.494204 -86.814561 89 34828ft 496kts
03-Oct-18 17:39 42.492124 -86.628135 90 34846ft 494kts
03-Oct-18 17:40 42.489823 -86.442227 90 34849ft 492kts
03-Oct-18 17:41 42.487196 -86.257210 90 34847ft 489kts
03-Oct-18 17:42 42.484304 -86.073307 90 34790ft 489kts
03-Oct-18 17:43 42.481079 -85.889210 90 34780ft 487kts
03-Oct-18 17:44 42.477645 -85.705733 90 34785ft 486kts
03-Oct-18 17:45 42.473867 -85.522472 90 34805ft 488kts
03-Oct-18 17:46 42.469706 -85.337865 90 34864ft 489kts
03-Oct-18 17:47 42.465464 -85.153879 90 34910ft 490kts
03-Oct-18 17:48 42.460505 -84.969462 90 34911ft 489kts
03-Oct-18 17:49 42.455765 -84.786111 90 34909ft 486kts
03-Oct-18 17:50 42.450466 -84.603740 90 34886ft 483kts
03-Oct-18 17:51 42.445174 -84.422147 90 34849ft 481kts
03-Oct-18 17:52 42.439350 -84.242112 90 34848ft 479kts
03-Oct-18 17:53 42.433318 -84.061493 91 34846ft 480kts
03-Oct-18 17:54 42.427113 -83.881141 90 34856ft 482kts
03-Oct-18 17:55 42.420462 -83.699877 91 34944ft 481kts
03-Oct-18 17:56 42.413611 -83.518436 91 34951ft 482kts
03-Oct-18 17:57 42.406365 -83.337535 91 34963ft 480kts
03-Oct-18 17:58 42.399032 -83.158135 91 34960ft 477kts
03-Oct-18 17:59 42.391306 -82.978876 91 34902ft 477kts
03-Oct-18 18:00 42.383341 -82.799798 91 34880ft 477kts
03-Oct-18 18:01 42.375569 -82.620046 90 34941ft 476kts
03-Oct-18 18:02 42.368987 -82.441274 91 34960ft 477kts
03-Oct-18 18:03 42.361585 -82.262482 91 34974ft 476kts
03-Oct-18 18:04 42.354101 -82.084150 91 34987ft 475kts
03-Oct-18 18:05 42.346289 -81.905768 91 34959ft 475kts
03-Oct-18 18:06 42.338195 -81.727885 91 35016ft 472kts
03-Oct-18 18:07 42.329826 -81.550497 91 34942ft 473kts
03-Oct-18 18:08 42.321448 -81.373466 91 34996ft 472kts
03-Oct-18 18:09 42.312576 -81.196065 91 34962ft 474kts
03-Oct-18 18:10 42.303366 -81.018125 91 35063ft 473kts
03-Oct-18 18:11 42.294171 -80.840589 91 35062ft 474kts
03-Oct-18 18:12 42.284557 -80.664002 91 35069ft 472kts
03-Oct-18 18:13 42.274609 -80.487565 91 35067ft 469kts
03-Oct-18 18:14 42.264439 -80.312107 91 35029ft 468kts
03-Oct-18 18:15 42.254097 -80.137265 91 34987ft 467kts
03-Oct-18 18:16 42.243549 -79.962856 91 34984ft 466kts
03-Oct-18 18:17 42.232629 -79.788001 91 35004ft 468kts
03-Oct-18 18:18 42.221466 -79.612451 92 35087ft 469kts
03-Oct-18 18:19 42.209928 -79.437814 92 35123ft 468kts
03-Oct-18 18:20 42.198085 -79.262657 92 35140ft 467kts
03-Oct-18 18:21 42.181883 -79.090140 105 35138ft 468kts
03-Oct-18 18:22 42.138841 -78.924026 108 35094ft 468kts
03-Oct-18 18:23 42.098200 -78.758956 107 35112ft 466kts
03-Oct-18 18:24 42.055980 -78.593811 107 35169ft 463kts
03-Oct-18 18:25 42.014374 -78.429566 108 35090ft 464kts
03-Oct-18 18:26 41.972411 -78.266065 107 35142ft 461kts
03-Oct-18 18:27 41.930399 -78.103641 108 35168ft 459kts
03-Oct-18 18:28 41.888252 -77.941737 108 35099ft 462kts
03-Oct-18 18:29 41.845561 -77.778567 108 35125ft 463kts
03-Oct-18 18:30 41.802447 -77.615556 108 35199ft 464kts
03-Oct-18 18:31 41.759374 -77.452569 108 35191ft 464kts
03-Oct-18 18:32 41.716035 -77.290884 108 35194ft 461kts
03-Oct-18 18:33 41.672699 -77.129909 108 35186ft 458kts
03-Oct-18 18:34 41.629373 -76.969603 109 35138ft 456kts
03-Oct-18 18:35 41.586085 -76.810874 109 35108ft 455kts
03-Oct-18 18:36 41.542692 -76.652590 109 35112ft 453kts
03-Oct-18 18:37 41.499274 -76.495298 109 35119ft 448kts
03-Oct-18 18:38 41.456115 -76.339408 109 35160ft 454kts
03-Oct-18 18:39 41.412029 -76.181742 109 35181ft 454kts
03-Oct-18 18:40 41.375033 -76.050072 109 35181ft 454kts
03-Oct-18 18:41 41.323018 -75.866529 110 34146ft 456kts
03-Oct-18 18:42 41.286040 -75.736681 110 32470ft 447kts
03-Oct-18 18:43 41.230171 -75.561896 114 30562ft 434kts
03-Oct-18 18:44 41.181390 -75.416479 114 29567ft 427kts
03-Oct-18 18:45 41.141610 -75.298053 114 28224ft 420kts
03-Oct-18 18:46 41.085965 -75.134241 114 25616ft 414kts
03-Oct-18 18:47 41.047012 -75.019024 114 23815ft 406kts
03-Oct-18 18:48 41.001493 -74.886111 113 21791ft 387kts
03-Oct-18 18:49 40.983795 -74.760108 96 20099ft 369kts
03-Oct-18 18:50 40.969628 -74.628570 97 18371ft 353kts
03-Oct-18 18:51 40.955780 -74.502201 97 16669ft 342kts
03-Oct-18 18:52 40.942178 -74.379128 96 15129ft 336kts
03-Oct-18 18:53 40.929325 -74.264880 96 13604ft 338kts
03-Oct-18 18:54 40.915041 -74.142544 103 11934ft 333kts
03-Oct-18 18:55 40.867749 -74.039521 122 10243ft 322kts
03-Oct-18 18:56 40.820481 -73.944062 121 8709ft 303kts
03-Oct-18 18:57 40.775883 -73.851866 118 6892ft 293kts
03-Oct-18 18:58 40.738230 -73.758733 116 5600ft 282kts
03-Oct-18 18:59 40.700698 -73.669204 133 4873ft 279kts
03-Oct-18 19:00 40.629914 -73.631785 178 4321ft 275kts
03-Oct-18 19:01 40.559524 -73.667346 206 3783ft 271kts
03-Oct-18 19:02 40.492039 -73.710318 206 3183ft 269kts
03-Oct-18 19:03 40.453012 -73.778582 280 2660ft 226kts
03-Oct-18 19:04 40.477030 -73.843768 298 2292ft 172kts
03-Oct-18 19:05 40.509386 -73.860794 27 1915ft 142kts
03-Oct-18 19:06 40.542086 -73.835357 29 1502ft 135kts
03-Oct-18 19:07 40.574444 -73.810131 29 1197ft 134kts
03-Oct-18 19:08 40.606217 -73.785244 29 497ft 132kts
03-Oct-18 19:09 40.636097 -73.762050 30 28ft 64kts
03-Oct-18 19:10 40.645065 -73.757937 1 27ft 17kts
03-Oct-18 19:11 40.646033 -73.762274 240 27ft 13kts
03-Oct-18 19:12 40.645146 -73.765225 299 27ft 4kts
03-Oct-18 19:13 40.645415 -73.765837 301 27ft 0kts
03-Oct-18 19:14 40.645415 -73.765837 301 27ft 0kts
03-Oct-18 19:15 40.645708 -73.766472 301 27ft 13kts
03-Oct-18 19:16 40.648495 -73.772588 300 27ft 21kts
03-Oct-18 19:17 40.651311 -73.778802 301 27ft 13kts
03-Oct-18 19:18 40.649653 -73.780851 194 27ft 7kts
03-Oct-18 19:19 40.649382 -73.781520 282 27ft 0kts
03-Oct-18 19:20 40.649390 -73.781571 282 27ft 0kts
03-Oct-18 19:21 40.649390 -73.781571 282 27ft 0kts

Navigation Log

Ident Type
Flight plan parsing failed, navigation log unavailable